Pagina principale
METAR-TAF:

METAR-TAF

Aeroporti :

Buochs, Svizzera

latitudine: 46-58-28N, longitudine: 8-23-49E, altezza: 449 m

Osservazione

Il bollettino è stato emesso 34 minuti fa, alle 13:20 UTC
Vento 4 kt da ovest/sud-ovest
Temperature 5°C
Umidità 87%
Pressione 1009 hPa
Visibilità: 6000 m
Cielo coperto ad un'altezza di 1100 ft

METAR: LSZC 211320Z 25004KT 6000 OVC011 05/03 Q1009 RMK SVFR

Ora: 14:54 (13:54 UTC)

Previsione

Il bollettino è stato emesso 2 ore e 29 minuti fa, alle 11:25 UTC
Previsione valida dal 21 alle 12 UTC al 21 alle 21 UTC
Vento 4 kt da sud/sud-ovest
Visibilità: 7000 m
Nuvoloso ad un'altezza di 1000 ft
Evoluzione graduale
dal 21 alle 12 UTC al 21 alle 15 UTC
Nubi sparse ad un'altezza di 1500 ft
Probabilità 40%
dal 21 alle 18 UTC al 21 alle 21 UTC
Nuvoloso ad un'altezza di 900 ft

TAF: LSZC 211125Z 2112/2121 21004KT 7000 BKN010 BECMG 2112/2115 SCT015 PROB40 2118/2121 BKN009

Osservazioni e previsioni meteorologiche di più di 4000 aeroporti (messaggi METAR e TAF).

Le stazioni disponibili sono rappresentate dai dischi gialli e rossi sulla carta.

Puntare il mouse per vedere il nome della stazione.

Clicca sopra per visualizzare le osservazioni e previsioni meteorologiche.

Per cambiare la mappa : fare clic sui pulsanti verdi con una croce nera per ingrandire, il pulsante verde con un trattino per diminuire, o sulla freccia verde per le mappe adiacenti.


METAR-TAF: